Time;durP1;ratioP1;P1;durP2;ratioP2;P2;SDS_P1;SDS_P2;PMS_P1;PMS_P2;Temp;Humidity;BMP_temperature;BMP_pressure;BME280_temperature;BME280_humidity;BME280_pressure;Samples;Min_cycle;Max_cycle;Signal;HPM_P1;HPM_P2
2022/11/26 00:00:48;;;;;;;43.17;12.20;;;;;;;3.03;100.00;102506.44;4973263;28;20671;-89
2022/11/26 00:03:14;;;;;;;38.08;11.38;;;;;;;3.05;100.00;102501.81;4974490;28;20035;-88
2022/11/26 00:05:42;;;;;;;40.20;12.73;;;;;;;3.05;100.00;102493.88;4974902;28;20062;-89
2022/11/26 00:08:34;;;;;;;41.65;11.60;;;;;;;3.09;100.00;102505.78;4989908;28;20434;-88
2022/11/26 00:11:00;;;;;;;35.35;11.13;;;;;;;3.08;100.00;102505.94;4972981;28;20122;-88
2022/11/26 00:13:29;;;;;;;40.45;12.13;;;;;;;3.06;100.00;102507.94;4975144;28;20053;-89
2022/11/26 00:15:55;;;;;;;36.35;11.93;;;;;;;3.00;100.00;102510.28;4974962;28;20027;-89
2022/11/26 00:18:25;;;;;;;36.77;11.80;;;;;;;2.96;100.00;102513.38;4974410;28;20030;-88
2022/11/26 00:20:54;;;;;;;37.63;11.27;;;;;;;2.82;100.00;102512.25;4973654;28;20345;-88
2022/11/26 00:23:25;;;;;;;42.67;11.52;;;;;;;2.81;100.00;102522.00;4974001;28;20027;-88
2022/11/26 00:25:56;;;;;;;36.92;11.70;;;;;;;2.74;100.00;102518.34;4974508;28;20104;-89
2022/11/26 00:28:24;;;;;;;35.75;11.32;;;;;;;2.72;100.00;102523.00;4974086;28;20109;-88
2022/11/26 00:30:50;;;;;;;36.70;11.60;;;;;;;2.68;100.00;102519.81;4972723;28;20035;-88
2022/11/26 00:33:15;;;;;;;39.10;10.73;;;;;;;2.66;100.00;102523.63;4974210;28;20018;-89
2022/11/26 00:35:41;;;;;;;40.00;11.50;;;;;;;2.62;100.00;102519.66;4973424;28;20486;-88
2022/11/26 00:38:12;;;;;;;37.17;11.13;;;;;;;2.55;100.00;102508.88;4973325;28;20046;-88
2022/11/26 00:40:39;;;;;;;37.70;10.90;;;;;;;2.52;100.00;102518.00;4972747;28;20046;-89
2022/11/26 00:43:05;;;;;;;34.83;11.37;;;;;;;2.52;100.00;102523.28;4971052;28;20478;-88
2022/11/26 00:45:30;;;;;;;46.22;11.25;;;;;;;2.50;100.00;102517.31;4973620;28;20038;-89
2022/11/26 00:48:00;;;;;;;38.67;11.10;;;;;;;2.44;100.00;102509.22;4973667;28;20019;-88
2022/11/26 00:50:26;;;;;;;41.05;12.85;;;;;;;2.47;100.00;102522.94;4973221;28;20038;-89
2022/11/26 00:52:56;;;;;;;38.75;11.90;;;;;;;2.49;100.00;102525.41;4973708;28;20026;-88
2022/11/26 00:55:32;;;;;;;46.57;12.90;;;;;;;2.50;100.00;102522.63;4974044;28;20445;-88
2022/11/26 00:57:59;;;;;;;36.40;11.33;;;;;;;2.49;100.00;102518.31;4974318;28;20325;-89
2022/11/26 01:00:27;;;;;;;43.63;12.00;;;;;;;2.48;100.00;102529.88;4971912;28;20058;-88
2022/11/26 01:02:52;;;;;;;41.67;12.80;;;;;;;2.42;100.00;102528.72;4972576;28;20023;-88
2022/11/26 01:05:19;;;;;;;39.60;11.77;;;;;;;2.42;100.00;102531.38;4973044;28;20037;-89
2022/11/26 01:07:45;;;;;;;39.05;12.77;;;;;;;2.43;100.00;102524.25;4971779;28;20022;-88
2022/11/26 01:10:16;;;;;;;38.53;11.48;;;;;;;2.37;100.00;102532.84;4971565;28;20045;-88
2022/11/26 01:12:41;;;;;;;36.00;11.85;;;;;;;2.39;100.00;102529.03;4972417;28;20106;-88
2022/11/26 01:15:06;;;;;;;37.27;11.63;;;;;;;2.39;100.00;102534.31;4981038;28;20130;-90
2022/11/26 01:17:32;;;;;;;43.67;12.47;;;;;;;2.43;100.00;102540.13;4976567;28;20057;-89
2022/11/26 01:19:57;;;;;;;43.17;12.65;;;;;;;2.47;100.00;102536.16;4971719;28;20567;-88
2022/11/26 01:22:23;;;;;;;45.50;13.30;;;;;;;2.56;100.00;102531.72;4971649;28;20031;-89
2022/11/26 01:24:49;;;;;;;39.23;13.17;;;;;;;2.53;100.00;102522.28;4972496;28;20031;-89
2022/11/26 01:27:18;;;;;;;51.65;14.15;;;;;;;2.63;100.00;102529.25;4976034;28;20058;-89
2022/11/26 01:29:43;;;;;;;36.53;13.27;;;;;;;2.52;100.00;102525.94;4976605;28;20475;-88
2022/11/26 01:32:10;;;;;;;35.20;12.63;;;;;;;2.43;100.00;102526.88;4973881;28;20038;-88
2022/11/26 01:34:35;;;;;;;45.55;15.02;;;;;;;2.47;100.00;102522.94;4972188;28;20080;-88
2022/11/26 01:37:00;;;;;;;42.27;13.97;;;;;;;2.46;100.00;102515.16;4971754;28;20125;-89
2022/11/26 01:39:25;;;;;;;47.63;16.30;;;;;;;2.48;100.00;102523.75;4971514;28;20039;-89
2022/11/26 01:42:14;;;;;;;59.87;20.93;;;;;;;2.50;100.00;102521.78;4970628;28;20486;-89
2022/11/26 01:44:39;;;;;;;60.63;21.52;;;;;;;2.54;100.00;102518.66;4972389;28;20268;-89
2022/11/26 01:47:23;;;;;;;56.20;21.30;;;;;;;2.46;100.00;102528.41;4972159;28;20052;-89
2022/11/26 01:50:26;;;;;;;59.13;20.75;;;;;;;2.34;100.00;102539.25;4971471;28;20592;-89
2022/11/26 01:53:13;;;;;;;51.65;18.92;;;;;;;2.20;100.00;102542.53;4952562;28;20402;-89
2022/11/26 01:55:43;;;;;;;43.42;17.48;;;;;;;2.11;100.00;102539.84;4951975;28;20035;-89
2022/11/26 01:58:13;;;;;;;44.30;16.97;;;;;;;2.05;100.00;102552.88;4953343;28;20082;-89
2022/11/26 02:00:39;;;;;;;56.57;18.13;;;;;;;2.00;100.00;102542.78;4969590;28;20294;-89
2022/11/26 02:03:06;;;;;;;50.28;17.65;;;;;;;1.98;100.00;102543.94;4971647;28;20023;-89
2022/11/26 02:05:38;;;;;;;46.30;18.17;;;;;;;1.97;100.00;102540.44;4970912;28;20027;-89
2022/11/26 02:08:04;;;;;;;45.03;18.02;;;;;;;1.91;100.00;102538.44;4970942;28;20046;-89
2022/11/26 02:10:30;;;;;;;50.35;18.58;;;;;;;1.88;100.00;102539.56;4971908;28;20038;-89
2022/11/26 02:12:55;;;;;;;57.13;17.50;;;;;;;1.93;100.00;102547.88;4971884;28;20034;-89
2022/11/26 02:15:24;;;;;;;60.80;16.90;;;;;;;2.00;100.00;102549.88;4985173;28;20506;-88
2022/11/26 02:18:08;;;;;;;47.70;17.08;;;;;;;2.10;100.00;102558.53;4997242;28;20041;-89
2022/11/26 02:20:49;;;;;;;57.00;15.85;;;;;;;2.25;100.00;102551.63;4975188;28;20034;-89
2022/11/26 02:24:06;;;;;;;42.67;14.77;;;;;;;2.23;100.00;102566.84;4973483;28;20035;-90
2022/11/26 02:26:47;;;;;;;57.70;16.13;;;;;;;2.27;100.00;102562.88;4961393;28;20302;-89
2022/11/26 02:29:29;;;;;;;46.22;14.40;;;;;;;2.24;100.00;102573.78;4973990;28;20406;-90
2022/11/26 02:31:59;;;;;;;41.05;13.25;;;;;;;2.18;100.00;102568.31;4973838;28;20031;-89
2022/11/26 02:34:47;;;;;;;46.88;14.38;;;;;;;2.12;100.00;102575.06;4973760;28;20382;-89
2022/11/26 02:37:21;;;;;;;43.10;13.63;;;;;;;2.07;100.00;102572.91;4974498;28;20073;-89
2022/11/26 02:39:47;;;;;;;44.08;12.55;;;;;;;2.05;100.00;102568.72;4985881;28;20037;-90
2022/11/26 02:42:32;;;;;;;42.27;13.10;;;;;;;2.03;100.00;102568.91;4988100;28;20046;-89
2022/11/26 02:45:04;;;;;;;41.03;12.10;;;;;;;2.01;100.00;102562.13;4986425;28;20030;-89
2022/11/26 02:47:32;;;;;;;44.40;12.63;;;;;;;2.00;100.00;102563.13;4995201;28;20298;-88
2022/11/26 02:50:02;;;;;;;43.45;12.55;;;;;;;1.94;100.00;102560.09;4995973;28;20030;-87
2022/11/26 02:52:29;;;;;;;45.05;13.80;;;;;;;2.00;100.00;102566.56;4989153;28;20058;-88
2022/11/26 02:54:56;;;;;;;44.38;11.93;;;;;;;1.99;100.00;102572.84;4990569;28;20058;-88
2022/11/26 02:57:25;;;;;;;55.70;13.82;;;;;;;1.98;100.00;102578.31;4989910;28;20037;-89
2022/11/26 02:59:51;;;;;;;41.85;12.57;;;;;;;1.98;100.00;102575.66;4986769;28;20037;-90
2022/11/26 03:02:24;;;;;;;58.77;12.70;;;;;;;1.94;100.00;102572.47;4982703;28;20035;-88
2022/11/26 03:04:55;;;;;;;37.78;12.18;;;;;;;1.91;100.00;102573.63;4983403;28;20026;-89
2022/11/26 03:07:21;;;;;;;50.83;12.73;;;;;;;1.96;100.00;102581.94;4981074;28;20077;-89
2022/11/26 03:09:53;;;;;;;36.10;12.17;;;;;;;1.98;100.00;102589.69;4979856;28;20507;-89
2022/11/26 03:12:19;;;;;;;54.15;13.50;;;;;;;1.96;100.00;102589.88;4990402;28;20011;-89
2022/11/26 03:14:45;;;;;;;46.13;12.82;;;;;;;1.96;100.00;102589.00;4999735;28;20025;-89
2022/11/26 03:17:11;;;;;;;43.65;12.35;;;;;;;2.01;100.00;102594.66;5002084;28;20035;-90
2022/11/26 03:19:36;;;;;;;51.33;14.20;;;;;;;2.04;100.00;102598.81;4994338;28;20065;-89
2022/11/26 03:22:02;;;;;;;47.63;13.63;;;;;;;2.01;100.00;102597.31;4995935;28;20095;-90
2022/11/26 03:24:27;;;;;;;39.90;12.63;;;;;;;2.01;100.00;102601.78;4995026;28;20042;-90
2022/11/26 03:26:53;;;;;;;58.27;13.40;;;;;;;2.04;100.00;102604.94;4980950;28;20402;-89
2022/11/26 03:29:18;;;;;;;39.57;12.00;;;;;;;2.03;100.00;102602.44;4977082;28;20442;-90
2022/11/26 03:31:43;;;;;;;59.73;14.10;;;;;;;2.06;100.00;102602.97;4977026;28;20111;-90
2022/11/26 03:34:09;;;;;;;48.33;13.70;;;;;;;2.04;100.00;102609.38;4974708;28;20027;-89
2022/11/26 03:36:34;;;;;;;46.78;12.73;;;;;;;2.02;100.00;102612.19;4975774;28;20042;-90
2022/11/26 03:38:59;;;;;;;42.80;12.70;;;;;;;2.03;100.00;102611.22;4974738;28;20039;-89
2022/11/26 03:41:25;;;;;;;47.50;12.50;;;;;;;2.05;100.00;102614.53;4974775;28;20054;-90
2022/11/26 03:43:50;;;;;;;38.23;12.87;;;;;;;2.04;100.00;102615.53;4974958;28;20073;-89
2022/11/26 03:46:15;;;;;;;50.67;12.63;;;;;;;1.99;100.00;102616.97;4975333;28;20058;-89
2022/11/26 03:48:41;;;;;;;41.17;12.07;;;;;;;1.88;100.00;102605.66;4974553;28;20035;-90
2022/11/26 03:51:06;;;;;;;40.73;11.47;;;;;;;1.87;100.00;102617.22;4973069;28;20041;-90
2022/11/26 03:53:31;;;;;;;47.87;11.63;;;;;;;1.82;100.00;102601.03;4974762;28;20038;-89
2022/11/26 03:55:57;;;;;;;46.07;11.50;;;;;;;1.78;100.00;102623.47;4974987;28;20223;-90
2022/11/26 03:58:22;;;;;;;41.30;11.47;;;;;;;1.73;100.00;102621.28;4976598;28;20054;-91
2022/11/26 04:00:47;;;;;;;42.72;11.55;;;;;;;1.72;100.00;102614.34;4978004;28;20118;-92
2022/11/26 04:03:13;;;;;;;37.00;11.37;;;;;;;1.71;100.00;102614.47;4975420;28;20360;-92
2022/11/26 04:05:38;;;;;;;44.20;11.20;;;;;;;1.72;100.00;102616.13;4970130;28;20142;-92
2022/11/26 04:08:04;;;;;;;48.40;10.73;;;;;;;1.67;100.00;102619.25;4973276;28;20057;-92
2022/11/26 04:10:29;;;;;;;35.78;10.02;;;;;;;1.63;100.00;102623.19;4974307;28;20575;-92
2022/11/26 04:12:54;;;;;;;32.93;10.40;;;;;;;1.60;100.00;102621.69;4974284;28;20495;-92
2022/11/26 04:15:20;;;;;;;41.90;11.00;;;;;;;1.65;100.00;102637.88;4975098;28;20668;-92
2022/11/26 04:17:45;;;;;;;43.97;11.10;;;;;;;1.70;100.00;102633.97;4974914;28;20034;-92
2022/11/26 04:20:10;;;;;;;40.07;10.97;;;;;;;1.65;100.00;102632.59;4973787;28;20105;-92
2022/11/26 04:22:36;;;;;;;40.67;10.52;;;;;;;1.57;100.00;102634.34;4974107;28;20422;-92
2022/11/26 04:25:01;;;;;;;36.33;10.77;;;;;;;1.61;100.00;102641.84;4974209;28;20019;-92
2022/11/26 04:27:32;;;;;;;45.13;10.77;;;;;;;1.68;100.00;102647.34;4973460;28;20062;-93
2022/11/26 04:29:58;;;;;;;53.50;11.43;;;;;;;1.76;100.00;102643.94;4973616;28;20126;-92
2022/11/26 04:32:23;;;;;;;41.60;11.07;;;;;;;1.82;100.00;102645.97;4973935;28;20053;-92
2022/11/26 04:34:50;;;;;;;41.30;10.63;;;;;;;1.82;100.00;102640.69;4972772;28;20096;-92
2022/11/26 04:37:15;;;;;;;39.97;11.55;;;;;;;1.80;100.00;102635.53;4986332;28;20027;-93
2022/11/26 04:39:40;;;;;;;32.77;10.97;;;;;;;1.78;100.00;102645.41;4979015;28;20038;-93
2022/11/26 04:42:06;;;;;;;42.65;10.82;;;;;;;1.75;100.00;102637.78;4972318;28;20045;-92
2022/11/26 04:44:31;;;;;;;42.40;10.77;;;;;;;1.80;100.00;102645.28;4974615;28;20023;-92
2022/11/26 04:46:56;;;;;;;45.13;10.13;;;;;;;1.83;100.00;102652.06;4973870;28;20041;-92
2022/11/26 04:49:22;;;;;;;48.23;10.70;;;;;;;1.76;100.00;102649.22;4974311;28;20030;-92
2022/11/26 04:51:47;;;;;;;42.53;10.43;;;;;;;1.74;100.00;102656.47;4968684;28;20093;-92
2022/11/26 04:54:12;;;;;;;44.00;9.67;;;;;;;1.69;100.00;102654.28;4974207;28;20060;-93
2022/11/26 04:56:37;;;;;;;43.38;10.50;;;;;;;1.70;100.00;102648.03;4974035;28;20118;-93
2022/11/26 04:59:03;;;;;;;39.47;9.93;;;;;;;1.64;100.00;102660.00;4974238;28;20081;-92
2022/11/26 05:01:31;;;;;;;37.33;10.40;;;;;;;1.61;100.00;102647.13;4973411;28;20029;-92
2022/11/26 05:03:56;;;;;;;41.28;11.30;;;;;;;1.66;100.00;102644.84;4975540;28;20059;-91
2022/11/26 05:06:21;;;;;;;54.40;13.53;;;;;;;1.81;100.00;102657.53;4975970;28;20167;-91
2022/11/26 05:08:47;;;;;;;49.90;14.93;;;;;;;1.89;100.00;102654.09;4980374;28;20030;-91
2022/11/26 05:11:12;;;;;;;74.07;20.30;;;;;;;1.94;100.00;102657.94;4983467;28;20038;-91
2022/11/26 05:13:37;;;;;;;72.07;22.37;;;;;;;1.93;100.00;102656.28;4982310;28;20053;-91
2022/11/26 05:16:03;;;;;;;69.10;21.07;;;;;;;1.94;100.00;102665.88;4999402;28;20029;-92
2022/11/26 05:18:28;;;;;;;64.13;18.98;;;;;;;1.88;100.00;102663.84;5008589;28;20031;-91
2022/11/26 05:20:54;;;;;;;57.73;17.20;;;;;;;1.84;100.00;102662.47;4998268;28;20488;-92
2022/11/26 05:23:19;;;;;;;56.53;14.43;;;;;;;1.85;100.00;102656.19;4994797;28;20064;-91
2022/11/26 05:25:44;;;;;;;47.87;12.67;;;;;;;1.83;100.00;102668.75;4967141;28;20030;-89
2022/11/26 05:28:10;;;;;;;52.22;11.27;;;;;;;1.70;100.00;102668.31;4964737;28;20026;-89
2022/11/26 05:30:35;;;;;;;43.27;10.93;;;;;;;1.69;100.00;102669.31;4963748;28;20359;-90
2022/11/26 05:33:00;;;;;;;47.00;10.47;;;;;;;1.68;100.00;102663.19;4964956;28;20122;-91
2022/11/26 05:35:26;;;;;;;47.63;10.93;;;;;;;1.73;100.00;102665.38;4967002;28;20121;-90
2022/11/26 05:37:51;;;;;;;53.00;11.60;;;;;;;1.76;100.00;102665.06;4972294;28;20030;-91
2022/11/26 05:40:17;;;;;;;50.00;13.03;;;;;;;1.76;100.00;102671.16;4971227;28;20033;-91
2022/11/26 05:42:42;;;;;;;42.50;13.23;;;;;;;1.80;100.00;102674.38;4970918;28;20601;-91
2022/11/26 05:45:08;;;;;;;61.90;15.93;;;;;;;1.84;100.00;102673.03;4966717;28;20031;-93
2022/11/26 05:47:33;;;;;;;71.00;17.20;;;;;;;1.88;100.00;102669.13;4973536;28;20033;-91
2022/11/26 05:49:59;;;;;;;61.10;18.27;;;;;;;1.95;100.00;102674.63;4971124;28;20027;-92
2022/11/26 05:52:24;;;;;;;77.13;19.27;;;;;;;1.94;100.00;102679.09;4972926;28;20050;-92
2022/11/26 05:54:49;;;;;;;62.00;19.50;;;;;;;1.96;100.00;102682.41;4971022;28;20038;-92
2022/11/26 05:57:15;;;;;;;73.20;20.00;;;;;;;1.92;100.00;102677.56;4973022;28;20447;-92
2022/11/26 05:59:40;;;;;;;73.80;20.53;;;;;;;1.94;100.00;102691.47;4971657;28;20034;-91
2022/11/26 06:02:05;;;;;;;68.40;19.77;;;;;;;1.88;100.00;102690.28;4971928;28;20117;-91
2022/11/26 06:04:31;;;;;;;70.15;18.77;;;;;;;1.83;100.00;102697.00;4971890;28;20073;-91
2022/11/26 06:06:56;;;;;;;50.27;17.20;;;;;;;1.77;100.00;102699.28;4972238;28;20487;-91
2022/11/26 06:09:21;;;;;;;68.47;17.13;;;;;;;1.70;100.00;102700.03;4969872;28;20035;-91
2022/11/26 06:11:50;;;;;;;57.37;17.63;;;;;;;1.67;100.00;102703.81;4971229;28;20027;-91
2022/11/26 06:14:16;;;;;;;51.28;15.98;;;;;;;1.66;100.00;102708.25;4972960;28;20034;-91
2022/11/26 06:16:42;;;;;;;59.15;17.70;;;;;;;1.66;100.00;102707.44;4983855;28;20054;-92
2022/11/26 06:19:07;;;;;;;52.23;15.80;;;;;;;1.66;100.00;102718.03;4972047;28;20027;-91
2022/11/26 06:21:32;;;;;;;52.60;16.50;;;;;;;1.64;100.00;102715.50;4971570;28;20035;-89
2022/11/26 06:23:58;;;;;;;57.00;17.67;;;;;;;1.61;100.00;102704.41;4972676;28;20734;-90
2022/11/26 06:26:23;;;;;;;58.97;17.60;;;;;;;1.64;100.00;102712.06;4977225;28;20058;-90
2022/11/26 06:28:49;;;;;;;64.00;18.70;;;;;;;1.67;100.00;102709.94;4978819;28;20386;-89
2022/11/26 06:31:14;;;;;;;63.17;17.73;;;;;;;1.70;100.00;102711.47;4971000;28;20061;-89
2022/11/26 06:33:39;;;;;;;76.67;19.70;;;;;;;1.73;100.00;102702.38;4970296;28;20105;-94
2022/11/26 06:36:05;;;;;;;71.20;21.08;;;;;;;1.79;100.00;102707.88;4980216;28;20557;-91
2022/11/26 06:38:30;;;;;;;74.87;21.77;;;;;;;1.86;100.00;102716.03;4974758;28;20039;-90
2022/11/26 06:40:58;;;;;;;60.83;19.13;;;;;;;1.88;100.00;102715.91;4985507;28;20022;-90
2022/11/26 06:43:23;;;;;;;77.22;21.75;;;;;;;1.88;100.00;102722.00;4974334;28;20114;-90
2022/11/26 06:45:48;;;;;;;62.57;18.17;;;;;;;1.89;100.00;102726.31;4972265;28;20197;-90
2022/11/26 06:48:14;;;;;;;56.80;17.35;;;;;;;1.80;100.00;102719.31;4969341;28;20030;-89
2022/11/26 06:50:39;;;;;;;54.70;16.93;;;;;;;1.72;100.00;102721.84;4964759;28;20034;-91
2022/11/26 06:53:04;;;;;;;56.53;15.53;;;;;;;1.69;100.00;102722.16;4977913;28;20041;-91
2022/11/26 06:55:29;;;;;;;57.97;16.97;;;;;;;1.67;100.00;102724.97;4973200;28;20141;-89
2022/11/26 06:57:55;;;;;;;70.90;17.30;;;;;;;1.66;100.00;102720.66;4973924;28;20030;-89
2022/11/26 07:00:20;;;;;;;57.97;16.33;;;;;;;1.70;100.00;102729.09;4972455;28;20125;-89
2022/11/26 07:02:46;;;;;;;66.38;17.58;;;;;;;1.76;100.00;102720.59;4974030;28;20378;-89
2022/11/26 07:05:11;;;;;;;63.40;17.07;;;;;;;1.79;100.00;102726.38;4971718;28;20035;-89
2022/11/26 07:07:37;;;;;;;57.97;17.27;;;;;;;1.80;100.00;102732.53;4972576;28;20081;-89
2022/11/26 07:10:03;;;;;;;77.03;18.20;;;;;;;1.80;100.00;102730.69;4974647;28;20561;-90
2022/11/26 07:12:28;;;;;;;57.10;16.10;;;;;;;1.84;100.00;102743.59;4982001;28;20054;-90
2022/11/26 07:14:54;;;;;;;66.80;17.88;;;;;;;1.84;100.00;102748.91;4977901;28;20042;-90
2022/11/26 07:17:19;;;;;;;57.70;18.17;;;;;;;1.85;100.00;102746.09;4977084;28;20133;-90
2022/11/26 07:19:44;;;;;;;61.40;17.87;;;;;;;1.84;100.00;102756.84;4975007;28;20054;-90
2022/11/26 07:22:10;;;;;;;54.63;16.37;;;;;;;1.82;100.00;102759.63;4977145;28;20027;-90
2022/11/26 07:24:35;;;;;;;59.00;16.43;;;;;;;1.79;100.00;102755.47;4974713;28;20050;-90
2022/11/26 07:27:00;;;;;;;57.67;17.47;;;;;;;1.80;100.00;102761.59;4976021;28;20026;-90
2022/11/26 07:29:26;;;;;;;64.55;18.23;;;;;;;1.89;100.00;102760.69;4989026;28;20027;-90
2022/11/26 07:31:51;;;;;;;70.33;21.67;;;;;;;1.98;100.00;102761.56;4995290;28;20029;-91
2022/11/26 07:34:16;;;;;;;71.37;20.27;;;;;;;1.99;100.00;102763.22;4996347;28;20023;-93
2022/11/26 07:36:42;;;;;;;79.77;20.40;;;;;;;2.05;100.00;102769.72;4995281;28;20050;-91
2022/11/26 07:39:09;;;;;;;73.50;21.10;;;;;;;2.08;100.00;102772.91;4977478;28;20030;-92
2022/11/26 07:41:34;;;;;;;88.53;19.67;;;;;;;2.07;100.00;102765.97;4969972;28;20031;-91
2022/11/26 07:44:01;;;;;;;86.73;20.97;;;;;;;2.07;100.00;102760.66;4975312;28;20373;-91
2022/11/26 07:46:26;;;;;;;63.83;19.20;;;;;;;2.07;100.00;102763.31;4975831;28;20138;-90
2022/11/26 07:48:53;;;;;;;87.47;22.43;;;;;;;2.18;100.00;102772.81;4974065;28;20031;-91
2022/11/26 07:51:21;;;;;;;80.25;21.38;;;;;;;2.22;100.00;102774.16;4975612;28;20015;-91
2022/11/26 07:53:47;;;;;;;80.13;21.33;;;;;;;2.32;100.00;102774.06;4976147;28;20038;-93
2022/11/26 07:56:12;;;;;;;93.43;22.67;;;;;;;2.33;100.00;102766.97;4975813;28;20325;-93
2022/11/26 07:58:37;;;;;;;79.15;21.40;;;;;;;2.40;100.00;102763.56;4971406;28;20508;-92
2022/11/26 08:01:12;;;;;;;82.73;21.47;;;;;;;2.50;100.00;102763.44;4975395;28;20106;-91
2022/11/26 08:03:39;;;;;;;81.30;20.77;;;;;;;2.50;100.00;102763.44;4973549;28;20030;-91
2022/11/26 08:06:06;;;;;;;82.93;19.67;;;;;;;2.57;100.00;102768.94;4974957;28;20510;-92
2022/11/26 08:08:33;;;;;;;85.77;23.07;;;;;;;2.68;100.00;102766.03;4976169;28;20371;-92
2022/11/26 08:10:59;;;;;;;88.60;23.42;;;;;;;2.79;100.00;102767.56;4981291;28;20023;-91
2022/11/26 08:13:24;;;;;;;86.68;22.67;;;;;;;2.86;100.00;102768.59;4982896;28;20091;-90
2022/11/26 08:15:50;;;;;;;97.37;22.60;;;;;;;2.94;100.00;102754.56;4982806;28;20034;-89
2022/11/26 08:18:15;;;;;;;87.00;23.03;;;;;;;3.05;100.00;102766.69;4987147;28;20467;-91
2022/11/26 08:20:40;;;;;;;81.43;20.70;;;;;;;3.19;100.00;102778.50;4977974;28;20033;-90
2022/11/26 08:23:05;;;;;;;92.83;20.17;;;;;;;3.25;100.00;102769.09;4975391;28;20041;-91
2022/11/26 08:25:31;;;;;;;80.23;21.37;;;;;;;3.39;100.00;102783.50;4980340;28;20066;-91
2022/11/26 08:27:56;;;;;;;79.03;19.50;;;;;;;3.45;100.00;102778.44;4981067;28;20089;-92
2022/11/26 08:30:21;;;;;;;69.27;18.97;;;;;;;3.48;100.00;102774.59;4965017;28;20047;-89
2022/11/26 08:32:47;;;;;;;79.73;18.77;;;;;;;3.54;100.00;102776.63;4971819;28;20030;-94
2022/11/26 08:35:12;;;;;;;101.40;29.00;;;;;;;3.64;100.00;102787.91;4973692;28;20173;-91
2022/11/26 08:37:37;;;;;;;75.10;18.27;;;;;;;3.71;100.00;102796.03;4974976;28;20026;-90
2022/11/26 08:40:04;;;;;;;83.27;21.60;;;;;;;3.81;100.00;102797.72;4975037;28;20054;-90
2022/11/26 08:42:29;;;;;;;80.13;21.63;;;;;;;3.88;100.00;102796.03;4975084;28;20023;-91
2022/11/26 08:44:54;;;;;;;68.53;18.40;;;;;;;3.94;100.00;102793.56;4974594;28;20038;-90
2022/11/26 08:47:20;;;;;;;79.30;20.10;;;;;;;4.01;100.00;102796.41;4974245;28;20524;-91
2022/11/26 08:49:48;;;;;;;83.47;19.13;;;;;;;4.07;100.00;102798.38;4973010;28;20170;-93
2022/11/26 08:52:13;;;;;;;75.43;19.60;;;;;;;4.14;100.00;102795.06;4974688;28;20030;-93
2022/11/26 08:54:39;;;;;;;86.20;18.40;;;;;;;4.19;100.00;102798.06;4975854;28;20390;-93
2022/11/26 08:57:04;;;;;;;76.37;17.57;;;;;;;4.23;100.00;102794.06;4975218;28;20026;-92
2022/11/26 08:59:29;;;;;;;70.90;18.70;;;;;;;4.29;100.00;102790.75;4976740;28;20102;-93
2022/11/26 09:01:55;;;;;;;82.83;17.00;;;;;;;4.36;100.00;102794.41;4980260;28;20087;-92
2022/11/26 09:04:20;;;;;;;80.10;18.07;;;;;;;4.38;100.00;102787.06;4983628;28;20083;-93
2022/11/26 09:06:45;;;;;;;76.23;16.63;;;;;;;4.46;100.00;102799.53;4982734;28;20034;-93
2022/11/26 09:09:11;;;;;;;78.23;21.13;;;;;;;4.51;100.00;102794.53;4978797;28;20054;-94
2022/11/26 09:11:43;;;;;;;81.35;23.95;;;;;;;4.54;100.00;102799.50;4976743;28;20489;-92
2022/11/26 09:14:09;;;;;;;79.95;16.13;;;;;;;4.60;100.00;102805.97;4975102;28;20034;-91
2022/11/26 09:16:34;;;;;;;75.55;15.82;;;;;;;4.67;100.00;102816.72;4974321;28;20039;-92
2022/11/26 09:19:01;;;;;;;73.27;16.87;;;;;;;4.68;100.00;102807.78;4975473;28;20031;-93
2022/11/26 09:21:27;;;;;;;67.07;15.15;;;;;;;4.74;100.00;102808.94;4974517;28;20030;-92
2022/11/26 09:23:53;;;;;;;70.73;16.20;;;;;;;4.76;100.00;102812.22;4977727;28;20027;-94
2022/11/26 09:26:20;;;;;;;62.40;15.40;;;;;;;4.80;100.00;102818.88;4990324;28;20050;-94
2022/11/26 09:28:47;;;;;;;73.35;14.80;;;;;;;4.85;100.00;102822.66;4990590;28;20387;-95
2022/11/26 09:31:13;;;;;;;68.38;15.45;;;;;;;4.92;100.00;102819.34;4994958;28;20015;-94
2022/11/26 09:33:38;;;;;;;61.00;16.87;;;;;;;4.96;100.00;102826.78;4997733;28;20022;-94
2022/11/26 09:36:08;;;;;;;72.50;15.60;;;;;;;5.05;100.00;102832.91;4989398;28;20027;-94
2022/11/26 09:38:35;;;;;;;64.97;15.60;;;;;;;5.10;100.00;102832.41;4985070;28;20034;-95
2022/11/26 09:41:28;;;;;;;74.50;16.57;;;;;;;5.13;100.00;102846.19;4992071;28;20293;-95
2022/11/26 09:44:24;;;;;;;76.88;16.80;;;;;;;5.15;100.00;102838.03;4978369;28;20054;-95
2022/11/26 09:46:55;;;;;;;62.30;16.80;;;;;;;5.17;100.00;102849.31;4975116;28;20498;-93
2022/11/26 09:49:21;;;;;;;70.65;17.85;;;;;;;5.20;100.00;102838.34;5000388;28;20034;-94
2022/11/26 09:51:51;;;;;;;56.35;17.80;;;;;;;5.22;100.00;102823.06;4995599;28;20046;-95
2022/11/26 09:54:21;;;;;;;71.07;21.67;;;;;;;5.28;100.00;102821.53;4985389;28;20023;-96
2022/11/26 09:56:52;;;;;;;65.17;19.00;;;;;;;5.33;100.00;102823.66;4979632;28;20039;-92
2022/11/26 09:59:18;;;;;;;58.63;15.83;;;;;;;5.41;100.00;102828.94;4975688;28;20279;-93
2022/11/26 10:01:44;;;;;;;55.10;15.20;;;;;;;5.45;100.00;102823.09;4991122;28;20478;-93
2022/11/26 10:04:21;;;;;;;52.20;15.97;;;;;;;5.53;100.00;102824.88;4982871;28;20033;-93
2022/11/26 10:07:13;;;;;;;49.45;14.32;;;;;;;5.56;100.00;102824.53;4992819;28;20164;-95
2022/11/26 10:09:47;;;;;;;49.22;12.00;;;;;;;5.63;100.00;102826.53;4987737;28;20037;-96
2022/11/26 10:12:50;;;;;;;47.60;12.15;;;;;;;5.70;100.00;102835.44;4998653;28;20073;-94
2022/11/26 10:15:19;;;;;;;40.45;11.02;;;;;;;5.71;100.00;102831.78;5002423;28;20019;-96
2022/11/26 10:18:03;;;;;;;32.97;10.87;;;;;;;5.78;100.00;102838.06;4999906;28;20178;-96
2022/11/26 10:20:54;;;;;;;43.37;11.60;;;;;;;5.81;100.00;102842.19;5002042;28;20300;-95
2022/11/26 10:23:32;;;;;;;48.92;12.98;;;;;;;5.85;100.00;102838.19;5002094;28;20057;-96
2022/11/26 10:26:06;;;;;;;46.35;14.13;;;;;;;5.82;100.00;102819.91;4990370;28;20023;-96
2022/11/26 10:28:40;;;;;;;50.33;13.32;;;;;;;5.80;100.00;102828.06;4999243;28;20053;-96
2022/11/26 10:31:15;;;;;;;53.35;18.20;;;;;;;5.80;100.00;102830.72;4985928;28;20050;-95
2022/11/26 10:33:50;;;;;;;45.27;14.07;;;;;;;5.88;100.00;102821.88;4972491;28;20051;-95
2022/11/26 10:36:21;;;;;;;41.93;13.43;;;;;;;5.95;100.00;102822.78;4972804;28;20662;-93
2022/11/26 10:38:47;;;;;;;53.63;16.33;;;;;;;6.03;100.00;102821.94;4971848;28;20078;-94
2022/11/26 10:41:13;;;;;;;38.40;12.73;;;;;;;6.04;100.00;102812.94;4980682;28;20031;-92
2022/11/26 10:43:38;;;;;;;52.65;15.88;;;;;;;6.03;100.00;102809.47;4973042;28;20026;-91
2022/11/26 10:46:04;;;;;;;47.03;13.33;;;;;;;6.04;100.00;102819.09;4970793;28;20034;-92
2022/11/26 10:48:33;;;;;;;42.88;11.63;;;;;;;6.04;100.00;102805.81;4971827;28;20038;-92
2022/11/26 10:51:13;;;;;;;39.30;12.13;;;;;;;6.05;100.00;102799.47;4952730;28;20027;-91
2022/11/26 10:53:45;;;;;;;42.50;10.30;;;;;;;6.05;100.00;102803.94;4953606;28;20290;-92
2022/11/26 10:56:17;;;;;;;40.05;8.90;;;;;;;6.02;100.00;102810.47;4954158;28;20068;-93
2022/11/26 10:58:44;;;;;;;43.22;9.30;;;;;;;6.03;100.00;102808.63;4959606;28;20023;-91
2022/11/26 11:01:13;;;;;;;35.95;9.30;;;;;;;6.01;100.00;102808.00;4969437;28;20344;-93
2022/11/26 11:03:48;;;;;;;43.65;9.38;;;;;;;6.03;100.00;102808.63;4958477;28;20035;-93
2022/11/26 11:06:19;;;;;;;34.25;9.10;;;;;;;6.05;100.00;102809.28;4971019;28;20034;-93
2022/11/26 11:08:48;;;;;;;36.80;8.83;;;;;;;6.08;100.00;102800.94;4972199;28;20571;-92
2022/11/26 11:11:21;;;;;;;45.87;8.67;;;;;;;6.12;100.00;102801.41;4971958;28;20352;-91
2022/11/26 11:13:48;;;;;;;41.65;10.25;;;;;;;6.17;100.00;102805.19;4971676;28;20093;-93